메인 페이지
METAR-TAF:

METAR-TAF

공항 :

Los Mochis, 멕시코

위도: 25-41N, 경도: 109-05W, 고도: 4m

현재 날씨관측

예보는 55분 전, 00:46시(UTC)에 발표되었습니다.
12kt
온도 30°C
습도 59%
기압 1008 hPa
시정: 16.1km
맑음

METAR: MMLM 150046Z 19012KT 10SM SKC 30/21 A2976

시각: 19:41 (01:41 UTC)

예보

예보는 8 시간 49분 전, 16:52시(UTC)에 발표되었습니다.
예보 대상 시간: 14일 18시부터 15일 18시까지 (UTC)
남동10kt
시정: 10km
고도 2000ft 상공 구름 많음
일시적
14일 22시부터 15일 02시까지 (UTC)
10kt, 순간 최대 풍속 20kt
15일 0500시부터 (UTC)
남남동5kt
시정: 9.7km
고도 1500ft 상공 구름 보통
연무
일시적
15일 12시부터 15일 15시까지 (UTC)
시정: 3.2km
고도 1000ft 상공 구름 많음
박무
15일 1800시부터 (UTC)
남남서10kt
시정: 10km
고도 2000ft 상공 구름 보통

TAF: MMLM 141652Z 1418/1518 14010KT P6SM BKN020 TEMPO 1422/1502 19010G20KT FM150500 15005KT 6SM HZ SCT015 TEMPO 1512/1515 2SM BR BKN010 FM151800 20010KT P6SM SCT020

4,000개 이상의 공항 관측 자료 및 예보 (METAR 및 TAF 보고).

지도상에서 검색 가능한 기상관측소가 노란 점과 빨간 점으로 표시되어 있습니다.

기상관측소 명을 보려면 표시 위로 마우스를 이동하세요.

날씨 관측과 예보를 보려면 클릭하세요.

지도 변경 : 확대하려면 엑스 표시가 있는 녹색 버튼, 축소하려면 빼기 표시가 있는 녹색 버튼, 다음 페이지의 지도를 보려면 녹색 화살표를 클릭하세요.


METAR-TAF: